sensor_id;sensor_type;location;lat;lon;timestamp;temperature;humidity
41944;DHT22;27636;52.610;13.244;2022-08-25T00:00:42;18.30;99.90
41944;DHT22;27636;52.610;13.244;2022-08-25T00:05:45;18.30;99.90
41944;DHT22;27636;52.610;13.244;2022-08-25T00:10:50;18.10;99.90
41944;DHT22;27636;52.610;13.244;2022-08-25T00:16:06;18.20;99.90
41944;DHT22;27636;52.610;13.244;2022-08-25T00:21:10;18.10;99.90
41944;DHT22;27636;52.610;13.244;2022-08-25T00:26:15;18.00;99.90
41944;DHT22;27636;52.610;13.244;2022-08-25T00:31:20;18.00;99.90
41944;DHT22;27636;52.610;13.244;2022-08-25T00:36:39;18.00;99.90
41944;DHT22;27636;52.610;13.244;2022-08-25T00:41:43;17.90;99.90
41944;DHT22;27636;52.610;13.244;2022-08-25T00:46:49;17.90;99.90
41944;DHT22;27636;52.610;13.244;2022-08-25T00:51:57;17.90;99.90
41944;DHT22;27636;52.610;13.244;2022-08-25T00:57:03;17.90;99.90
41944;DHT22;27636;52.610;13.244;2022-08-25T01:02:09;17.80;99.90
41944;DHT22;27636;52.610;13.244;2022-08-25T01:07:17;17.70;99.90
41944;DHT22;27636;52.610;13.244;2022-08-25T01:12:21;17.70;99.90
41944;DHT22;27636;52.610;13.244;2022-08-25T01:17:32;17.70;99.90
41944;DHT22;27636;52.610;13.244;2022-08-25T01:22:36;17.60;99.90
41944;DHT22;27636;52.610;13.244;2022-08-25T01:27:39;17.50;99.90
41944;DHT22;27636;52.610;13.244;2022-08-25T01:32:42;17.50;99.90
41944;DHT22;27636;52.610;13.244;2022-08-25T01:37:47;17.50;99.90
41944;DHT22;27636;52.610;13.244;2022-08-25T01:42:57;17.60;99.90
41944;DHT22;27636;52.610;13.244;2022-08-25T01:48:04;17.50;99.90
41944;DHT22;27636;52.610;13.244;2022-08-25T01:53:12;17.50;99.90
41944;DHT22;27636;52.610;13.244;2022-08-25T01:58:20;17.30;99.90
41944;DHT22;27636;52.610;13.244;2022-08-25T02:03:25;17.30;99.90
41944;DHT22;27636;52.610;13.244;2022-08-25T02:08:30;17.30;99.90
41944;DHT22;27636;52.610;13.244;2022-08-25T02:13:33;17.30;99.90
41944;DHT22;27636;52.610;13.244;2022-08-25T02:18:36;17.30;99.90
41944;DHT22;27636;52.610;13.244;2022-08-25T02:23:41;17.30;99.90
41944;DHT22;27636;52.610;13.244;2022-08-25T02:28:45;17.30;99.90
41944;DHT22;27636;52.610;13.244;2022-08-25T02:33:49;17.30;99.90
41944;DHT22;27636;52.610;13.244;2022-08-25T02:38:54;17.30;99.90
41944;DHT22;27636;52.610;13.244;2022-08-25T02:43:58;17.20;99.90
41944;DHT22;27636;52.610;13.244;2022-08-25T02:49:02;17.10;99.90
41944;DHT22;27636;52.610;13.244;2022-08-25T02:54:09;17.10;99.90
41944;DHT22;27636;52.610;13.244;2022-08-25T02:59:12;17.10;99.90
41944;DHT22;27636;52.610;13.244;2022-08-25T03:04:15;17.10;99.90
41944;DHT22;27636;52.610;13.244;2022-08-25T03:09:20;17.10;99.90
41944;DHT22;27636;52.610;13.244;2022-08-25T03:14:24;17.00;99.90
41944;DHT22;27636;52.610;13.244;2022-08-25T03:19:27;16.90;99.90
41944;DHT22;27636;52.610;13.244;2022-08-25T03:24:31;17.00;99.90
41944;DHT22;27636;52.610;13.244;2022-08-25T03:29:35;17.10;99.90
41944;DHT22;27636;52.610;13.244;2022-08-25T03:34:38;17.20;99.90
41944;DHT22;27636;52.610;13.244;2022-08-25T03:39:42;17.40;99.90
41944;DHT22;27636;52.610;13.244;2022-08-25T03:44:46;17.50;99.90
41944;DHT22;27636;52.610;13.244;2022-08-25T03:49:49;17.60;99.90
41944;DHT22;27636;52.610;13.244;2022-08-25T03:54:54;17.60;99.90
41944;DHT22;27636;52.610;13.244;2022-08-25T03:59:57;17.80;99.90
41944;DHT22;27636;52.610;13.244;2022-08-25T04:05:00;17.80;99.90
41944;DHT22;27636;52.610;13.244;2022-08-25T04:10:05;17.80;99.90
41944;DHT22;27636;52.610;13.244;2022-08-25T04:15:09;17.80;99.90
41944;DHT22;27636;52.610;13.244;2022-08-25T04:20:13;17.80;99.90
41944;DHT22;27636;52.610;13.244;2022-08-25T04:25:17;17.90;99.90
41944;DHT22;27636;52.610;13.244;2022-08-25T04:30:20;18.00;99.90
41944;DHT22;27636;52.610;13.244;2022-08-25T04:35:24;18.00;99.90
41944;DHT22;27636;52.610;13.244;2022-08-25T04:40:28;18.00;99.90
41944;DHT22;27636;52.610;13.244;2022-08-25T04:45:35;18.20;99.90
41944;DHT22;27636;52.610;13.244;2022-08-25T04:50:39;18.20;99.90
41944;DHT22;27636;52.610;13.244;2022-08-25T04:55:44;18.20;99.90
41944;DHT22;27636;52.610;13.244;2022-08-25T05:00:49;18.20;99.90
41944;DHT22;27636;52.610;13.244;2022-08-25T05:05:52;18.20;99.90
41944;DHT22;27636;52.610;13.244;2022-08-25T05:10:56;18.30;99.90
41944;DHT22;27636;52.610;13.244;2022-08-25T05:16:00;18.30;99.90
41944;DHT22;27636;52.610;13.244;2022-08-25T05:21:08;18.50;99.90
41944;DHT22;27636;52.610;13.244;2022-08-25T05:26:14;18.50;99.90
41944;DHT22;27636;52.610;13.244;2022-08-25T05:31:23;18.60;99.90
41944;DHT22;27636;52.610;13.244;2022-08-25T05:36:27;18.80;99.90
41944;DHT22;27636;52.610;13.244;2022-08-25T05:41:32;19.10;99.90
41944;DHT22;27636;52.610;13.244;2022-08-25T05:46:35;19.00;99.90
41944;DHT22;27636;52.610;13.244;2022-08-25T05:51:38;19.00;99.90
41944;DHT22;27636;52.610;13.244;2022-08-25T05:56:43;19.20;99.90
41944;DHT22;27636;52.610;13.244;2022-08-25T06:01:47;19.20;99.90
41944;DHT22;27636;52.610;13.244;2022-08-25T06:07:08;19.20;99.90
41944;DHT22;27636;52.610;13.244;2022-08-25T06:12:13;19.20;99.90
41944;DHT22;27636;52.610;13.244;2022-08-25T06:17:17;19.30;99.90
41944;DHT22;27636;52.610;13.244;2022-08-25T06:22:20;19.30;99.90
41944;DHT22;27636;52.610;13.244;2022-08-25T06:27:24;19.40;99.90
41944;DHT22;27636;52.610;13.244;2022-08-25T06:32:29;19.60;99.90
41944;DHT22;27636;52.610;13.244;2022-08-25T06:37:32;19.70;99.90
41944;DHT22;27636;52.610;13.244;2022-08-25T06:42:37;19.70;99.90
41944;DHT22;27636;52.610;13.244;2022-08-25T06:47:41;19.70;99.90
41944;DHT22;27636;52.610;13.244;2022-08-25T06:52:47;19.70;99.90
41944;DHT22;27636;52.610;13.244;2022-08-25T06:57:52;19.80;99.90
41944;DHT22;27636;52.610;13.244;2022-08-25T07:02:57;20.10;99.90
41944;DHT22;27636;52.610;13.244;2022-08-25T07:08:01;20.10;99.90
41944;DHT22;27636;52.610;13.244;2022-08-25T07:13:05;20.20;99.90
41944;DHT22;27636;52.610;13.244;2022-08-25T07:18:08;20.40;99.90
41944;DHT22;27636;52.610;13.244;2022-08-25T07:23:13;20.80;99.90
41944;DHT22;27636;52.610;13.244;2022-08-25T07:28:18;20.80;99.90
41944;DHT22;27636;52.610;13.244;2022-08-25T07:33:21;20.80;99.90
41944;DHT22;27636;52.610;13.244;2022-08-25T07:38:25;21.10;99.90
41944;DHT22;27636;52.610;13.244;2022-08-25T07:43:29;21.10;99.90
41944;DHT22;27636;52.610;13.244;2022-08-25T07:48:33;21.10;99.90
41944;DHT22;27636;52.610;13.244;2022-08-25T07:53:37;21.60;99.90
41944;DHT22;27636;52.610;13.244;2022-08-25T07:58:43;21.70;99.90
41944;DHT22;27636;52.610;13.244;2022-08-25T08:03:46;21.90;99.90
41944;DHT22;27636;52.610;13.244;2022-08-25T08:08:53;22.10;99.90
41944;DHT22;27636;52.610;13.244;2022-08-25T08:14:02;22.10;99.90
41944;DHT22;27636;52.610;13.244;2022-08-25T08:19:05;22.20;99.90
41944;DHT22;27636;52.610;13.244;2022-08-25T08:24:08;22.50;99.90
41944;DHT22;27636;52.610;13.244;2022-08-25T08:29:33;23.00;99.90
41944;DHT22;27636;52.610;13.244;2022-08-25T08:34:37;23.10;99.90
41944;DHT22;27636;52.610;13.244;2022-08-25T08:39:40;23.20;99.90
41944;DHT22;27636;52.610;13.244;2022-08-25T08:45:18;23.00;99.90
41944;DHT22;27636;52.610;13.244;2022-08-25T08:50:31;22.70;99.90
41944;DHT22;27636;52.610;13.244;2022-08-25T08:55:39;23.50;99.90
41944;DHT22;27636;52.610;13.244;2022-08-25T09:00:46;24.40;99.90
41944;DHT22;27636;52.610;13.244;2022-08-25T09:05:55;25.70;99.90
41944;DHT22;27636;52.610;13.244;2022-08-25T09:11:03;25.50;99.90
41944;DHT22;27636;52.610;13.244;2022-08-25T09:16:17;26.90;99.90
41944;DHT22;27636;52.610;13.244;2022-08-25T09:21:45;27.30;99.90
41944;DHT22;27636;52.610;13.244;2022-08-25T09:26:58;26.00;99.90
41944;DHT22;27636;52.610;13.244;2022-08-25T09:32:06;24.90;99.90
41944;DHT22;27636;52.610;13.244;2022-08-25T09:37:12;24.20;99.90
41944;DHT22;27636;52.610;13.244;2022-08-25T09:42:17;24.50;99.90
41944;DHT22;27636;52.610;13.244;2022-08-25T09:47:27;24.40;99.90
41944;DHT22;27636;52.610;13.244;2022-08-25T09:52:33;25.20;99.90
41944;DHT22;27636;52.610;13.244;2022-08-25T09:57:44;25.90;99.90
41944;DHT22;27636;52.610;13.244;2022-08-25T10:08:31;25.10;99.90
41944;DHT22;27636;52.610;13.244;2022-08-25T10:13:38;25.50;99.90
41944;DHT22;27636;52.610;13.244;2022-08-25T10:18:43;25.40;99.90
41944;DHT22;27636;52.610;13.244;2022-08-25T10:23:50;25.10;99.90
41944;DHT22;27636;52.610;13.244;2022-08-25T10:29:12;25.70;99.90
41944;DHT22;27636;52.610;13.244;2022-08-25T10:34:29;25.90;99.90
41944;DHT22;27636;52.610;13.244;2022-08-25T10:39:40;26.50;99.90
41944;DHT22;27636;52.610;13.244;2022-08-25T10:44:50;27.40;99.90
41944;DHT22;27636;52.610;13.244;2022-08-25T10:50:31;28.40;99.90
41944;DHT22;27636;52.610;13.244;2022-08-25T10:55:41;28.90;99.90
41944;DHT22;27636;52.610;13.244;2022-08-25T11:00:53;29.00;99.90
41944;DHT22;27636;52.610;13.244;2022-08-25T11:06:03;28.90;99.90
41944;DHT22;27636;52.610;13.244;2022-08-25T11:11:12;28.30;99.90
41944;DHT22;27636;52.610;13.244;2022-08-25T11:16:32;28.50;99.90
41944;DHT22;27636;52.610;13.244;2022-08-25T11:21:47;28.70;99.90
41944;DHT22;27636;52.610;13.244;2022-08-25T11:26:55;27.90;99.90
41944;DHT22;27636;52.610;13.244;2022-08-25T11:31:59;27.00;99.90
41944;DHT22;27636;52.610;13.244;2022-08-25T11:37:11;27.10;99.90
41944;DHT22;27636;52.610;13.244;2022-08-25T11:42:25;28.20;99.90
41944;DHT22;27636;52.610;13.244;2022-08-25T11:47:53;28.70;99.90
41944;DHT22;27636;52.610;13.244;2022-08-25T11:53:18;28.00;99.90
41944;DHT22;27636;52.610;13.244;2022-08-25T11:58:45;28.40;99.90
41944;DHT22;27636;52.610;13.244;2022-08-25T12:03:53;29.60;98.00
41944;DHT22;27636;52.610;13.244;2022-08-25T12:09:20;28.80;99.50
41944;DHT22;27636;52.610;13.244;2022-08-25T12:14:44;29.20;97.20
41944;DHT22;27636;52.610;13.244;2022-08-25T12:19:57;29.80;94.80
41944;DHT22;27636;52.610;13.244;2022-08-25T12:25:04;29.30;95.50
41944;DHT22;27636;52.610;13.244;2022-08-25T12:30:14;29.40;95.70
41944;DHT22;27636;52.610;13.244;2022-08-25T12:35:28;31.20;94.60
41944;DHT22;27636;52.610;13.244;2022-08-25T12:40:36;32.20;84.50
41944;DHT22;27636;52.610;13.244;2022-08-25T12:45:43;30.90;88.60
41944;DHT22;27636;52.610;13.244;2022-08-25T12:50:55;30.50;90.80
41944;DHT22;27636;52.610;13.244;2022-08-25T12:56:04;30.50;90.90
41944;DHT22;27636;52.610;13.244;2022-08-25T13:01:16;32.80;84.40
41944;DHT22;27636;52.610;13.244;2022-08-25T13:06:51;31.30;86.40
41944;DHT22;27636;52.610;13.244;2022-08-25T13:12:04;30.20;90.60
41944;DHT22;27636;52.610;13.244;2022-08-25T13:17:10;29.00;91.90
41944;DHT22;27636;52.610;13.244;2022-08-25T13:22:16;28.60;93.40
41944;DHT22;27636;52.610;13.244;2022-08-25T13:27:23;29.60;94.10
41944;DHT22;27636;52.610;13.244;2022-08-25T13:32:30;30.10;91.40
41944;DHT22;27636;52.610;13.244;2022-08-25T13:37:38;29.70;89.30
41944;DHT22;27636;52.610;13.244;2022-08-25T13:42:44;29.40;91.20
41944;DHT22;27636;52.610;13.244;2022-08-25T13:47:55;30.70;87.60
41944;DHT22;27636;52.610;13.244;2022-08-25T13:53:02;31.00;90.80
41944;DHT22;27636;52.610;13.244;2022-08-25T13:58:13;30.50;87.40
41944;DHT22;27636;52.610;13.244;2022-08-25T14:03:31;29.40;91.40
41944;DHT22;27636;52.610;13.244;2022-08-25T14:08:38;28.30;93.70
41944;DHT22;27636;52.610;13.244;2022-08-25T14:13:43;27.90;96.30
41944;DHT22;27636;52.610;13.244;2022-08-25T14:18:50;28.70;94.50
41944;DHT22;27636;52.610;13.244;2022-08-25T14:23:55;29.00;92.90
41944;DHT22;27636;52.610;13.244;2022-08-25T14:28:59;28.80;92.10
41944;DHT22;27636;52.610;13.244;2022-08-25T14:34:05;28.90;92.60
41944;DHT22;27636;52.610;13.244;2022-08-25T14:39:11;29.90;90.00
41944;DHT22;27636;52.610;13.244;2022-08-25T14:44:14;30.20;90.80
41944;DHT22;27636;52.610;13.244;2022-08-25T14:49:20;30.70;86.70
41944;DHT22;27636;52.610;13.244;2022-08-25T14:54:28;30.10;87.30
41944;DHT22;27636;52.610;13.244;2022-08-25T14:59:35;29.90;86.60
41944;DHT22;27636;52.610;13.244;2022-08-25T15:04:49;29.10;89.20
41944;DHT22;27636;52.610;13.244;2022-08-25T15:09:55;29.00;91.30
41944;DHT22;27636;52.610;13.244;2022-08-25T15:14:58;29.70;89.00
41944;DHT22;27636;52.610;13.244;2022-08-25T15:20:02;29.60;90.00
41944;DHT22;27636;52.610;13.244;2022-08-25T15:25:09;29.30;88.00
41944;DHT22;27636;52.610;13.244;2022-08-25T15:30:13;29.00;89.60
41944;DHT22;27636;52.610;13.244;2022-08-25T15:35:17;29.00;89.70
41944;DHT22;27636;52.610;13.244;2022-08-25T15:40:22;29.40;89.40
41944;DHT22;27636;52.610;13.244;2022-08-25T15:45:25;29.40;87.00
41944;DHT22;27636;52.610;13.244;2022-08-25T15:50:28;29.40;86.20
41944;DHT22;27636;52.610;13.244;2022-08-25T15:55:37;30.00;84.20
41944;DHT22;27636;52.610;13.244;2022-08-25T16:00:42;30.20;85.40
41944;DHT22;27636;52.610;13.244;2022-08-25T16:05:57;29.60;86.80
41944;DHT22;27636;52.610;13.244;2022-08-25T16:11:06;29.40;88.80
41944;DHT22;27636;52.610;13.244;2022-08-25T16:16:24;28.60;90.40
41944;DHT22;27636;52.610;13.244;2022-08-25T16:21:29;28.60;90.40
41944;DHT22;27636;52.610;13.244;2022-08-25T16:26:34;28.50;90.90
41944;DHT22;27636;52.610;13.244;2022-08-25T16:31:38;28.40;90.40
41944;DHT22;27636;52.610;13.244;2022-08-25T16:36:42;27.70;91.90
41944;DHT22;27636;52.610;13.244;2022-08-25T16:41:47;27.40;93.20
41944;DHT22;27636;52.610;13.244;2022-08-25T16:46:53;27.10;94.40
41944;DHT22;27636;52.610;13.244;2022-08-25T16:51:57;26.90;95.60
41944;DHT22;27636;52.610;13.244;2022-08-25T16:57:03;26.80;96.40
41944;DHT22;27636;52.610;13.244;2022-08-25T17:02:06;26.80;95.30
41944;DHT22;27636;52.610;13.244;2022-08-25T17:07:10;26.70;95.70
41944;DHT22;27636;52.610;13.244;2022-08-25T17:12:15;26.60;97.00
41944;DHT22;27636;52.610;13.244;2022-08-25T17:17:19;26.40;97.40
41944;DHT22;27636;52.610;13.244;2022-08-25T17:22:22;26.20;98.60
41944;DHT22;27636;52.610;13.244;2022-08-25T17:27:27;26.20;98.60
41944;DHT22;27636;52.610;13.244;2022-08-25T17:32:30;26.00;99.90
41944;DHT22;27636;52.610;13.244;2022-08-25T17:37:34;25.80;99.90
41944;DHT22;27636;52.610;13.244;2022-08-25T17:42:39;25.60;99.90
41944;DHT22;27636;52.610;13.244;2022-08-25T17:47:42;25.70;99.90
41944;DHT22;27636;52.610;13.244;2022-08-25T17:52:45;25.40;99.90
41944;DHT22;27636;52.610;13.244;2022-08-25T17:57:50;25.20;99.90
41944;DHT22;27636;52.610;13.244;2022-08-25T18:02:54;25.10;99.90
41944;DHT22;27636;52.610;13.244;2022-08-25T18:07:57;24.80;99.90
41944;DHT22;27636;52.610;13.244;2022-08-25T18:13:03;24.70;99.90
41944;DHT22;27636;52.610;13.244;2022-08-25T18:18:07;24.30;99.90
41944;DHT22;27636;52.610;13.244;2022-08-25T18:23:14;24.00;99.90
41944;DHT22;27636;52.610;13.244;2022-08-25T18:28:19;23.90;99.90
41944;DHT22;27636;52.610;13.244;2022-08-25T18:33:23;23.80;99.90
41944;DHT22;27636;52.610;13.244;2022-08-25T18:38:26;23.50;99.90
41944;DHT22;27636;52.610;13.244;2022-08-25T18:43:49;23.20;99.90
41944;DHT22;27636;52.610;13.244;2022-08-25T18:48:54;22.80;99.90
41944;DHT22;27636;52.610;13.244;2022-08-25T18:53:58;22.70;99.90
41944;DHT22;27636;52.610;13.244;2022-08-25T18:59:04;22.70;99.90
41944;DHT22;27636;52.610;13.244;2022-08-25T19:04:08;22.50;99.90
41944;DHT22;27636;52.610;13.244;2022-08-25T19:09:11;22.50;99.90
41944;DHT22;27636;52.610;13.244;2022-08-25T19:14:16;22.40;99.90
41944;DHT22;27636;52.610;13.244;2022-08-25T19:19:20;22.70;99.90
41944;DHT22;27636;52.610;13.244;2022-08-25T19:24:23;22.90;99.90
41944;DHT22;27636;52.610;13.244;2022-08-25T19:29:29;22.80;99.90
41944;DHT22;27636;52.610;13.244;2022-08-25T19:34:37;22.60;99.90
41944;DHT22;27636;52.610;13.244;2022-08-25T19:39:48;22.50;99.90
41944;DHT22;27636;52.610;13.244;2022-08-25T19:44:56;22.80;99.90
41944;DHT22;27636;52.610;13.244;2022-08-25T19:50:00;22.70;99.90
41944;DHT22;27636;52.610;13.244;2022-08-25T19:55:05;22.40;99.90
41944;DHT22;27636;52.610;13.244;2022-08-25T20:00:13;22.20;99.90
41944;DHT22;27636;52.610;13.244;2022-08-25T20:05:17;21.90;99.90
41944;DHT22;27636;52.610;13.244;2022-08-25T20:10:28;21.70;99.90
41944;DHT22;27636;52.610;13.244;2022-08-25T20:15:34;21.50;99.90
41944;DHT22;27636;52.610;13.244;2022-08-25T20:20:41;21.30;99.90
41944;DHT22;27636;52.610;13.244;2022-08-25T20:25:45;21.20;99.90
41944;DHT22;27636;52.610;13.244;2022-08-25T20:30:50;21.00;99.90
41944;DHT22;27636;52.610;13.244;2022-08-25T20:35:53;20.90;99.90
41944;DHT22;27636;52.610;13.244;2022-08-25T20:40:58;20.70;99.90
41944;DHT22;27636;52.610;13.244;2022-08-25T20:46:05;20.50;99.90
41944;DHT22;27636;52.610;13.244;2022-08-25T20:51:10;20.40;99.90
41944;DHT22;27636;52.610;13.244;2022-08-25T20:56:16;20.30;99.90
41944;DHT22;27636;52.610;13.244;2022-08-25T21:01:23;20.20;99.90
41944;DHT22;27636;52.610;13.244;2022-08-25T21:06:40;20.10;99.90
41944;DHT22;27636;52.610;13.244;2022-08-25T21:11:44;20.00;99.90
41944;DHT22;27636;52.610;13.244;2022-08-25T21:16:50;19.90;99.90
41944;DHT22;27636;52.610;13.244;2022-08-25T21:21:54;19.80;99.90
41944;DHT22;27636;52.610;13.244;2022-08-25T21:27:02;19.70;99.90
41944;DHT22;27636;52.610;13.244;2022-08-25T21:32:07;19.70;99.90
41944;DHT22;27636;52.610;13.244;2022-08-25T21:37:11;19.70;99.90
41944;DHT22;27636;52.610;13.244;2022-08-25T21:42:14;19.60;99.90
41944;DHT22;27636;52.610;13.244;2022-08-25T21:47:20;19.50;99.90
41944;DHT22;27636;52.610;13.244;2022-08-25T21:52:25;19.50;99.90
41944;DHT22;27636;52.610;13.244;2022-08-25T21:57:28;19.50;99.90
41944;DHT22;27636;52.610;13.244;2022-08-25T22:02:32;19.50;99.90
41944;DHT22;27636;52.610;13.244;2022-08-25T22:07:36;19.50;99.90
41944;DHT22;27636;52.610;13.244;2022-08-25T22:12:46;19.40;99.90
41944;DHT22;27636;52.610;13.244;2022-08-25T22:17:51;19.50;99.90
41944;DHT22;27636;52.610;13.244;2022-08-25T22:22:54;19.50;99.90
41944;DHT22;27636;52.610;13.244;2022-08-25T22:27:57;19.60;99.90
41944;DHT22;27636;52.610;13.244;2022-08-25T22:33:03;19.50;99.90
41944;DHT22;27636;52.610;13.244;2022-08-25T22:38:11;19.50;99.90
41944;DHT22;27636;52.610;13.244;2022-08-25T22:43:14;19.50;99.90
41944;DHT22;27636;52.610;13.244;2022-08-25T22:48:19;19.50;99.90
41944;DHT22;27636;52.610;13.244;2022-08-25T22:53:22;19.60;99.90
41944;DHT22;27636;52.610;13.244;2022-08-25T22:58:26;19.80;99.90
41944;DHT22;27636;52.610;13.244;2022-08-25T23:03:32;19.80;99.90
41944;DHT22;27636;52.610;13.244;2022-08-25T23:08:35;19.70;99.90
41944;DHT22;27636;52.610;13.244;2022-08-25T23:13:42;19.60;99.90
41944;DHT22;27636;52.610;13.244;2022-08-25T23:18:47;19.50;99.90
41944;DHT22;27636;52.610;13.244;2022-08-25T23:23:50;19.50;99.90
41944;DHT22;27636;52.610;13.244;2022-08-25T23:28:53;19.40;99.90
41944;DHT22;27636;52.610;13.244;2022-08-25T23:33:58;19.40;99.90
41944;DHT22;27636;52.610;13.244;2022-08-25T23:39:05;19.40;99.90
41944;DHT22;27636;52.610;13.244;2022-08-25T23:44:09;19.40;99.90
41944;DHT22;27636;52.610;13.244;2022-08-25T23:49:21;19.40;99.90
41944;DHT22;27636;52.610;13.244;2022-08-25T23:54:25;19.50;99.90
41944;DHT22;27636;52.610;13.244;2022-08-25T23:59:33;19.30;99.90
